sensor_id;sensor_type;location;lat;lon;timestamp;pressure;altitude;pressure_sealevel;temperature;humidity
9899;BME280;4988;49.238;6.698;2022-08-03T00:00:43;99157.88;;;20.35;73.28
9899;BME280;4988;49.238;6.698;2022-08-03T00:03:08;99152.66;;;20.22;73.83
9899;BME280;4988;49.238;6.698;2022-08-03T00:05:33;99153.13;;;20.06;74.80
9899;BME280;4988;49.238;6.698;2022-08-03T00:07:59;99152.97;;;19.87;75.80
9899;BME280;4988;49.238;6.698;2022-08-03T00:10:25;99162.00;;;19.76;76.17
9899;BME280;4988;49.238;6.698;2022-08-03T00:12:51;99160.41;;;19.73;76.06
9899;BME280;4988;49.238;6.698;2022-08-03T00:15:17;99159.66;;;19.71;75.61
9899;BME280;4988;49.238;6.698;2022-08-03T00:17:43;99155.75;;;19.64;75.92
9899;BME280;4988;49.238;6.698;2022-08-03T00:20:09;99152.72;;;19.57;75.99
9899;BME280;4988;49.238;6.698;2022-08-03T00:22:34;99153.91;;;19.65;75.78
9899;BME280;4988;49.238;6.698;2022-08-03T00:24:59;99157.19;;;19.80;75.26
9899;BME280;4988;49.238;6.698;2022-08-03T00:27:25;99158.38;;;19.87;75.02
9899;BME280;4988;49.238;6.698;2022-08-03T00:29:50;99151.91;;;19.89;74.81
9899;BME280;4988;49.238;6.698;2022-08-03T00:32:15;99156.03;;;19.93;74.64
9899;BME280;4988;49.238;6.698;2022-08-03T00:34:41;99154.31;;;19.92;74.51
9899;BME280;4988;49.238;6.698;2022-08-03T00:37:06;99144.63;;;19.90;74.76
9899;BME280;4988;49.238;6.698;2022-08-03T00:39:31;99145.63;;;19.89;74.97
9899;BME280;4988;49.238;6.698;2022-08-03T00:42:01;99152.63;;;19.80;75.11
9899;BME280;4988;49.238;6.698;2022-08-03T00:44:26;99150.56;;;19.84;74.33
9899;BME280;4988;49.238;6.698;2022-08-03T00:46:52;99146.50;;;19.78;74.38
9899;BME280;4988;49.238;6.698;2022-08-03T00:49:17;99151.56;;;19.71;74.92
9899;BME280;4988;49.238;6.698;2022-08-03T00:51:42;99148.25;;;19.68;75.65
9899;BME280;4988;49.238;6.698;2022-08-03T00:54:09;99146.91;;;19.62;76.26
9899;BME280;4988;49.238;6.698;2022-08-03T00:56:34;99155.09;;;19.39;76.84
9899;BME280;4988;49.238;6.698;2022-08-03T00:59:01;99149.25;;;19.23;76.93
9899;BME280;4988;49.238;6.698;2022-08-03T01:01:27;99154.06;;;19.19;76.99
9899;BME280;4988;49.238;6.698;2022-08-03T01:03:52;99148.78;;;19.06;77.42
9899;BME280;4988;49.238;6.698;2022-08-03T01:06:40;99146.44;;;18.90;79.19
9899;BME280;4988;49.238;6.698;2022-08-03T01:12:00;99139.97;;;18.81;78.42
9899;BME280;4988;49.238;6.698;2022-08-03T01:14:41;99136.16;;;18.84;78.73
9899;BME280;4988;49.238;6.698;2022-08-03T01:19:59;99139.09;;;19.04;78.27
9899;BME280;4988;49.238;6.698;2022-08-03T01:22:43;99135.91;;;19.10;77.78
9899;BME280;4988;49.238;6.698;2022-08-03T01:28:28;99131.25;;;18.89;78.15
9899;BME280;4988;49.238;6.698;2022-08-03T01:31:01;99129.31;;;18.80;78.86
9899;BME280;4988;49.238;6.698;2022-08-03T01:33:34;99126.84;;;18.77;79.29
9899;BME280;4988;49.238;6.698;2022-08-03T01:36:03;99122.69;;;18.73;79.49
9899;BME280;4988;49.238;6.698;2022-08-03T01:38:40;99122.66;;;18.50;79.14
9899;BME280;4988;49.238;6.698;2022-08-03T01:41:10;99123.28;;;18.42;81.32
9899;BME280;4988;49.238;6.698;2022-08-03T01:43:39;99119.13;;;18.49;80.65
9899;BME280;4988;49.238;6.698;2022-08-03T01:46:07;99118.00;;;18.63;80.18
9899;BME280;4988;49.238;6.698;2022-08-03T01:48:37;99111.16;;;18.71;79.27
9899;BME280;4988;49.238;6.698;2022-08-03T01:51:05;99111.75;;;18.74;79.30
9899;BME280;4988;49.238;6.698;2022-08-03T01:53:32;99117.63;;;18.79;78.86
9899;BME280;4988;49.238;6.698;2022-08-03T01:55:58;99112.00;;;18.83;78.34
9899;BME280;4988;49.238;6.698;2022-08-03T01:58:27;99113.00;;;18.81;78.14
9899;BME280;4988;49.238;6.698;2022-08-03T02:00:54;99106.75;;;18.81;78.73
9899;BME280;4988;49.238;6.698;2022-08-03T02:03:23;99110.44;;;18.69;78.27
9899;BME280;4988;49.238;6.698;2022-08-03T02:05:49;99109.34;;;18.71;78.45
9899;BME280;4988;49.238;6.698;2022-08-03T02:08:18;99110.41;;;18.57;79.40
9899;BME280;4988;49.238;6.698;2022-08-03T02:10:44;99107.38;;;18.51;79.67
9899;BME280;4988;49.238;6.698;2022-08-03T02:13:11;99105.41;;;18.53;79.96
9899;BME280;4988;49.238;6.698;2022-08-03T02:15:38;99104.94;;;18.59;79.88
9899;BME280;4988;49.238;6.698;2022-08-03T02:18:07;99098.66;;;18.58;79.85
9899;BME280;4988;49.238;6.698;2022-08-03T02:20:33;99108.72;;;18.68;78.89
9899;BME280;4988;49.238;6.698;2022-08-03T02:23:02;99110.19;;;18.72;78.40
9899;BME280;4988;49.238;6.698;2022-08-03T02:25:29;99112.88;;;18.72;78.63
9899;BME280;4988;49.238;6.698;2022-08-03T02:27:57;99116.81;;;18.68;78.33
9899;BME280;4988;49.238;6.698;2022-08-03T02:30:30;99116.06;;;18.65;78.94
9899;BME280;4988;49.238;6.698;2022-08-03T02:32:58;99120.97;;;18.49;79.21
9899;BME280;4988;49.238;6.698;2022-08-03T02:35:25;99121.81;;;18.38;80.26
9899;BME280;4988;49.238;6.698;2022-08-03T02:37:58;99114.56;;;18.27;80.06
9899;BME280;4988;49.238;6.698;2022-08-03T02:40:27;99118.50;;;18.23;80.17
9899;BME280;4988;49.238;6.698;2022-08-03T02:42:56;99116.50;;;18.14;81.27
9899;BME280;4988;49.238;6.698;2022-08-03T02:45:25;99113.19;;;18.10;81.47
9899;BME280;4988;49.238;6.698;2022-08-03T02:47:55;99114.44;;;18.06;81.12
9899;BME280;4988;49.238;6.698;2022-08-03T02:50:22;99108.44;;;18.14;80.81
9899;BME280;4988;49.238;6.698;2022-08-03T02:52:50;99109.16;;;18.05;80.72
9899;BME280;4988;49.238;6.698;2022-08-03T02:55:19;99109.06;;;17.82;81.83
9899;BME280;4988;49.238;6.698;2022-08-03T02:57:45;99102.41;;;17.75;82.30
9899;BME280;4988;49.238;6.698;2022-08-03T03:00:12;99109.78;;;17.73;82.46
9899;BME280;4988;49.238;6.698;2022-08-03T03:02:39;99097.78;;;17.77;81.82
9899;BME280;4988;49.238;6.698;2022-08-03T03:05:05;99106.97;;;17.74;82.09
9899;BME280;4988;49.238;6.698;2022-08-03T03:07:32;99104.63;;;17.69;82.53
9899;BME280;4988;49.238;6.698;2022-08-03T03:09:59;99103.63;;;17.59;83.20
9899;BME280;4988;49.238;6.698;2022-08-03T03:12:26;99099.31;;;17.57;83.17
9899;BME280;4988;49.238;6.698;2022-08-03T03:14:52;99093.31;;;17.53;83.42
9899;BME280;4988;49.238;6.698;2022-08-03T03:17:19;99096.97;;;17.52;82.78
9899;BME280;4988;49.238;6.698;2022-08-03T03:19:45;99091.81;;;17.49;82.64
9899;BME280;4988;49.238;6.698;2022-08-03T03:22:11;99102.56;;;17.49;82.46
9899;BME280;4988;49.238;6.698;2022-08-03T03:24:40;99099.38;;;17.44;82.77
9899;BME280;4988;49.238;6.698;2022-08-03T03:27:07;99101.94;;;17.45;83.17
9899;BME280;4988;49.238;6.698;2022-08-03T03:29:33;99092.31;;;17.54;83.21
9899;BME280;4988;49.238;6.698;2022-08-03T03:32:00;99095.16;;;17.64;82.41
9899;BME280;4988;49.238;6.698;2022-08-03T03:34:28;99097.28;;;17.72;81.87
9899;BME280;4988;49.238;6.698;2022-08-03T03:36:54;99095.56;;;17.71;82.43
9899;BME280;4988;49.238;6.698;2022-08-03T03:39:19;99096.19;;;17.74;82.17
9899;BME280;4988;49.238;6.698;2022-08-03T03:41:45;99094.00;;;17.79;81.90
9899;BME280;4988;49.238;6.698;2022-08-03T03:44:11;99103.66;;;17.82;81.22
9899;BME280;4988;49.238;6.698;2022-08-03T03:46:37;99103.31;;;17.87;81.13
9899;BME280;4988;49.238;6.698;2022-08-03T03:49:05;99096.97;;;17.88;81.08
9899;BME280;4988;49.238;6.698;2022-08-03T03:51:31;99092.69;;;17.85;81.20
9899;BME280;4988;49.238;6.698;2022-08-03T03:53:58;99087.50;;;17.82;81.57
9899;BME280;4988;49.238;6.698;2022-08-03T03:56:24;99093.41;;;17.87;81.09
9899;BME280;4988;49.238;6.698;2022-08-03T03:58:50;99097.81;;;17.88;81.13
9899;BME280;4988;49.238;6.698;2022-08-03T04:01:16;99098.91;;;17.85;81.02
9899;BME280;4988;49.238;6.698;2022-08-03T04:03:42;99091.19;;;17.81;81.13
9899;BME280;4988;49.238;6.698;2022-08-03T04:06:07;99100.22;;;17.80;80.80
9899;BME280;4988;49.238;6.698;2022-08-03T04:08:51;99098.84;;;17.63;81.03
9899;BME280;4988;49.238;6.698;2022-08-03T04:11:42;99105.34;;;17.60;81.20
9899;BME280;4988;49.238;6.698;2022-08-03T04:14:13;99100.16;;;17.57;82.49
9899;BME280;4988;49.238;6.698;2022-08-03T04:16:45;99097.47;;;17.57;81.99
9899;BME280;4988;49.238;6.698;2022-08-03T04:19:14;99094.56;;;17.60;81.64
9899;BME280;4988;49.238;6.698;2022-08-03T04:21:43;99094.56;;;17.60;81.97
9899;BME280;4988;49.238;6.698;2022-08-03T04:24:12;99102.72;;;17.59;82.46
9899;BME280;4988;49.238;6.698;2022-08-03T04:26:40;99102.69;;;17.47;82.08
9899;BME280;4988;49.238;6.698;2022-08-03T04:29:08;99102.88;;;17.33;81.94
9899;BME280;4988;49.238;6.698;2022-08-03T04:31:35;99106.59;;;17.19;83.18
9899;BME280;4988;49.238;6.698;2022-08-03T04:34:01;99114.78;;;17.17;83.55
9899;BME280;4988;49.238;6.698;2022-08-03T04:36:31;99110.25;;;17.18;83.61
9899;BME280;4988;49.238;6.698;2022-08-03T04:39:03;99108.81;;;17.25;83.26
9899;BME280;4988;49.238;6.698;2022-08-03T04:41:30;99114.50;;;17.33;82.87
9899;BME280;4988;49.238;6.698;2022-08-03T04:43:57;99116.50;;;17.43;82.80
9899;BME280;4988;49.238;6.698;2022-08-03T04:46:28;99110.44;;;17.52;82.51
9899;BME280;4988;49.238;6.698;2022-08-03T04:48:56;99121.34;;;17.62;81.67
9899;BME280;4988;49.238;6.698;2022-08-03T04:51:21;99120.56;;;17.73;81.45
9899;BME280;4988;49.238;6.698;2022-08-03T04:53:47;99124.47;;;17.80;81.09
9899;BME280;4988;49.238;6.698;2022-08-03T04:56:12;99123.78;;;17.89;80.88
9899;BME280;4988;49.238;6.698;2022-08-03T04:58:38;99125.53;;;18.02;80.63
9899;BME280;4988;49.238;6.698;2022-08-03T05:01:03;99121.56;;;18.19;79.76
9899;BME280;4988;49.238;6.698;2022-08-03T05:03:29;99127.31;;;18.25;79.29
9899;BME280;4988;49.238;6.698;2022-08-03T05:05:55;99129.78;;;18.40;78.09
9899;BME280;4988;49.238;6.698;2022-08-03T05:08:21;99134.69;;;18.46;78.67
9899;BME280;4988;49.238;6.698;2022-08-03T05:10:46;99128.09;;;18.61;77.47
9899;BME280;4988;49.238;6.698;2022-08-03T05:13:11;99127.69;;;18.66;78.09
9899;BME280;4988;49.238;6.698;2022-08-03T05:15:38;99125.63;;;18.81;77.15
9899;BME280;4988;49.238;6.698;2022-08-03T05:18:03;99130.88;;;19.05;76.11
9899;BME280;4988;49.238;6.698;2022-08-03T05:20:29;99127.31;;;19.16;75.98
9899;BME280;4988;49.238;6.698;2022-08-03T05:22:55;99131.47;;;19.32;75.32
9899;BME280;4988;49.238;6.698;2022-08-03T05:25:20;99119.63;;;19.44;74.27
9899;BME280;4988;49.238;6.698;2022-08-03T05:27:46;99130.72;;;19.62;74.01
9899;BME280;4988;49.238;6.698;2022-08-03T05:30:11;99129.81;;;19.73;73.23
9899;BME280;4988;49.238;6.698;2022-08-03T05:32:37;99123.41;;;19.85;72.90
9899;BME280;4988;49.238;6.698;2022-08-03T05:35:02;99120.09;;;20.03;72.75
9899;BME280;4988;49.238;6.698;2022-08-03T05:37:28;99128.75;;;20.18;71.81
9899;BME280;4988;49.238;6.698;2022-08-03T05:39:53;99128.34;;;20.22;71.61
9899;BME280;4988;49.238;6.698;2022-08-03T05:42:18;99124.78;;;20.22;71.58
9899;BME280;4988;49.238;6.698;2022-08-03T05:44:44;99129.38;;;20.21;72.30
9899;BME280;4988;49.238;6.698;2022-08-03T05:47:09;99117.81;;;20.19;72.40
9899;BME280;4988;49.238;6.698;2022-08-03T05:49:34;99121.94;;;20.23;71.94
9899;BME280;4988;49.238;6.698;2022-08-03T05:52:00;99121.75;;;20.36;71.48
9899;BME280;4988;49.238;6.698;2022-08-03T05:54:25;99125.06;;;20.40;nan
9899;BME280;4988;49.238;6.698;2022-08-03T05:56:51;99124.63;;;20.45;70.76
9899;BME280;4988;49.238;6.698;2022-08-03T05:59:16;99118.69;;;20.51;71.02
9899;BME280;4988;49.238;6.698;2022-08-03T06:01:42;99119.75;;;20.60;70.87
9899;BME280;4988;49.238;6.698;2022-08-03T06:04:07;99119.63;;;20.71;70.19
9899;BME280;4988;49.238;6.698;2022-08-03T06:06:32;99121.84;;;20.77;70.26
9899;BME280;4988;49.238;6.698;2022-08-03T06:08:57;99127.94;;;20.79;70.16
9899;BME280;4988;49.238;6.698;2022-08-03T06:11:23;99128.41;;;20.84;69.39
9899;BME280;4988;49.238;6.698;2022-08-03T06:13:49;99131.38;;;20.81;69.74
9899;BME280;4988;49.238;6.698;2022-08-03T06:16:14;99133.53;;;20.87;69.81
9899;BME280;4988;49.238;6.698;2022-08-03T06:18:39;99124.13;;;20.92;69.54
9899;BME280;4988;49.238;6.698;2022-08-03T06:21:05;99132.59;;;21.08;69.29
9899;BME280;4988;49.238;6.698;2022-08-03T06:23:30;99129.03;;;21.17;68.70
9899;BME280;4988;49.238;6.698;2022-08-03T06:25:55;99131.09;;;21.35;68.24
9899;BME280;4988;49.238;6.698;2022-08-03T06:28:21;99127.25;;;21.47;67.84
9899;BME280;4988;49.238;6.698;2022-08-03T06:30:46;99121.00;;;21.57;67.50
9899;BME280;4988;49.238;6.698;2022-08-03T06:33:11;99119.19;;;21.67;67.74
9899;BME280;4988;49.238;6.698;2022-08-03T06:35:37;99124.88;;;21.83;66.64
9899;BME280;4988;49.238;6.698;2022-08-03T06:38:02;99124.44;;;21.98;66.29
9899;BME280;4988;49.238;6.698;2022-08-03T06:40:28;99129.53;;;22.11;65.72
9899;BME280;4988;49.238;6.698;2022-08-03T06:42:56;99119.41;;;22.23;65.98
9899;BME280;4988;49.238;6.698;2022-08-03T06:45:21;99124.22;;;22.29;65.54
9899;BME280;4988;49.238;6.698;2022-08-03T06:47:47;99127.94;;;22.38;64.90
9899;BME280;4988;49.238;6.698;2022-08-03T06:50:12;99131.34;;;22.49;64.97
9899;BME280;4988;49.238;6.698;2022-08-03T06:52:37;99133.72;;;22.62;64.42
9899;BME280;4988;49.238;6.698;2022-08-03T06:55:04;99130.78;;;22.84;63.28
9899;BME280;4988;49.238;6.698;2022-08-03T06:57:29;99127.28;;;23.01;62.75
9899;BME280;4988;49.238;6.698;2022-08-03T06:59:54;99130.94;;;23.10;62.06
9899;BME280;4988;49.238;6.698;2022-08-03T07:02:26;99136.91;;;23.23;60.57
9899;BME280;4988;49.238;6.698;2022-08-03T07:04:51;99132.81;;;23.37;60.49
9899;BME280;4988;49.238;6.698;2022-08-03T07:07:16;99140.56;;;23.50;58.58
9899;BME280;4988;49.238;6.698;2022-08-03T07:09:43;99144.47;;;23.66;58.58
9899;BME280;4988;49.238;6.698;2022-08-03T07:12:08;99143.75;;;23.82;57.95
9899;BME280;4988;49.238;6.698;2022-08-03T07:14:33;99143.56;;;23.93;57.60
9899;BME280;4988;49.238;6.698;2022-08-03T07:16:59;99132.28;;;24.06;58.01
9899;BME280;4988;49.238;6.698;2022-08-03T07:19:24;99141.56;;;24.21;57.21
9899;BME280;4988;49.238;6.698;2022-08-03T07:21:50;99145.44;;;24.37;57.10
9899;BME280;4988;49.238;6.698;2022-08-03T07:24:15;99136.16;;;24.48;56.20
9899;BME280;4988;49.238;6.698;2022-08-03T07:26:40;99139.44;;;24.60;55.85
9899;BME280;4988;49.238;6.698;2022-08-03T07:29:06;99136.97;;;24.75;55.62
9899;BME280;4988;49.238;6.698;2022-08-03T07:31:31;99136.38;;;24.89;54.80
9899;BME280;4988;49.238;6.698;2022-08-03T07:33:56;99130.50;;;25.02;54.75
9899;BME280;4988;49.238;6.698;2022-08-03T07:36:22;99140.72;;;25.16;54.79
9899;BME280;4988;49.238;6.698;2022-08-03T07:38:48;99139.09;;;25.32;53.99
9899;BME280;4988;49.238;6.698;2022-08-03T07:41:14;99141.88;;;25.40;54.24
9899;BME280;4988;49.238;6.698;2022-08-03T07:43:40;99138.84;;;25.51;53.30
9899;BME280;4988;49.238;6.698;2022-08-03T07:46:05;99134.94;;;25.62;53.76
9899;BME280;4988;49.238;6.698;2022-08-03T07:48:30;99138.16;;;25.74;53.38
9899;BME280;4988;49.238;6.698;2022-08-03T07:50:55;99135.09;;;25.85;52.79
9899;BME280;4988;49.238;6.698;2022-08-03T07:53:21;99137.66;;;25.95;52.56
9899;BME280;4988;49.238;6.698;2022-08-03T07:55:46;99136.66;;;26.05;52.13
9899;BME280;4988;49.238;6.698;2022-08-03T07:58:12;99137.53;;;26.13;52.41
9899;BME280;4988;49.238;6.698;2022-08-03T08:00:40;99137.50;;;26.30;52.60
9899;BME280;4988;49.238;6.698;2022-08-03T08:03:06;99135.97;;;26.44;51.51
9899;BME280;4988;49.238;6.698;2022-08-03T08:05:33;99124.66;;;26.55;50.88
9899;BME280;4988;49.238;6.698;2022-08-03T08:07:59;99128.09;;;26.57;51.20
9899;BME280;4988;49.238;6.698;2022-08-03T08:10:25;99131.81;;;26.64;50.53
9899;BME280;4988;49.238;6.698;2022-08-03T08:12:51;99125.16;;;26.67;50.62
9899;BME280;4988;49.238;6.698;2022-08-03T08:15:17;99131.13;;;26.79;50.58
9899;BME280;4988;49.238;6.698;2022-08-03T08:17:48;99131.06;;;26.95;49.98
9899;BME280;4988;49.238;6.698;2022-08-03T08:20:19;99133.22;;;27.08;49.71
9899;BME280;4988;49.238;6.698;2022-08-03T08:22:44;99126.13;;;27.22;49.01
9899;BME280;4988;49.238;6.698;2022-08-03T08:25:10;99123.91;;;27.26;48.97
9899;BME280;4988;49.238;6.698;2022-08-03T08:27:46;99128.22;;;27.20;49.09
9899;BME280;4988;49.238;6.698;2022-08-03T08:30:14;99128.50;;;27.34;48.83
9899;BME280;4988;49.238;6.698;2022-08-03T08:32:40;99130.22;;;27.58;48.46
9899;BME280;4988;49.238;6.698;2022-08-03T08:35:07;99129.59;;;27.79;47.79
9899;BME280;4988;49.238;6.698;2022-08-03T08:37:33;99122.56;;;28.00;47.56
9899;BME280;4988;49.238;6.698;2022-08-03T08:39:59;99120.38;;;28.18;46.61
9899;BME280;4988;49.238;6.698;2022-08-03T08:42:24;99115.78;;;28.34;46.06
9899;BME280;4988;49.238;6.698;2022-08-03T08:44:50;99114.97;;;28.48;45.74
9899;BME280;4988;49.238;6.698;2022-08-03T08:47:18;99117.69;;;28.63;45.00
9899;BME280;4988;49.238;6.698;2022-08-03T08:49:43;99112.91;;;28.80;44.84
9899;BME280;4988;49.238;6.698;2022-08-03T08:52:12;99117.34;;;28.96;44.05
9899;BME280;4988;49.238;6.698;2022-08-03T08:54:40;99115.44;;;28.97;43.59
9899;BME280;4988;49.238;6.698;2022-08-03T08:57:06;99115.06;;;29.00;44.54
9899;BME280;4988;49.238;6.698;2022-08-03T08:59:32;99126.13;;;28.92;44.49
9899;BME280;4988;49.238;6.698;2022-08-03T09:02:01;99120.75;;;28.83;44.45
9899;BME280;4988;49.238;6.698;2022-08-03T09:04:29;99119.22;;;28.81;44.14
9899;BME280;4988;49.238;6.698;2022-08-03T09:06:55;99119.00;;;28.97;43.54
9899;BME280;4988;49.238;6.698;2022-08-03T09:09:20;99122.53;;;29.06;42.71
9899;BME280;4988;49.238;6.698;2022-08-03T09:11:47;99119.66;;;29.14;42.25
9899;BME280;4988;49.238;6.698;2022-08-03T09:14:13;99117.47;;;29.25;42.15
9899;BME280;4988;49.238;6.698;2022-08-03T09:16:54;99111.41;;;29.44;40.59
9899;BME280;4988;49.238;6.698;2022-08-03T09:19:20;99111.81;;;29.63;39.97
9899;BME280;4988;49.238;6.698;2022-08-03T09:21:47;99113.63;;;29.77;39.79
9899;BME280;4988;49.238;6.698;2022-08-03T09:24:30;99108.53;;;29.96;39.59
9899;BME280;4988;49.238;6.698;2022-08-03T09:26:56;99105.91;;;30.09;39.25
9899;BME280;4988;49.238;6.698;2022-08-03T09:29:21;99106.59;;;30.18;39.17
9899;BME280;4988;49.238;6.698;2022-08-03T09:31:47;99103.50;;;30.28;39.04
9899;BME280;4988;49.238;6.698;2022-08-03T09:34:14;99100.69;;;30.14;39.04
9899;BME280;4988;49.238;6.698;2022-08-03T09:36:45;99102.19;;;30.17;39.32
9899;BME280;4988;49.238;6.698;2022-08-03T09:39:13;99100.53;;;30.23;39.27
9899;BME280;4988;49.238;6.698;2022-08-03T09:41:40;99104.47;;;30.42;38.30
9899;BME280;4988;49.238;6.698;2022-08-03T09:44:07;99099.28;;;30.54;37.96
9899;BME280;4988;49.238;6.698;2022-08-03T09:46:53;99087.91;;;30.57;37.56
9899;BME280;4988;49.238;6.698;2022-08-03T09:49:20;99086.56;;;30.17;37.26
9899;BME280;4988;49.238;6.698;2022-08-03T09:51:46;99086.56;;;30.17;37.43
9899;BME280;4988;49.238;6.698;2022-08-03T09:54:12;99087.84;;;30.22;37.27
9899;BME280;4988;49.238;6.698;2022-08-03T09:56:49;99088.25;;;30.19;36.87
9899;BME280;4988;49.238;6.698;2022-08-03T09:59:28;99080.31;;;30.30;37.48
9899;BME280;4988;49.238;6.698;2022-08-03T10:01:56;99078.94;;;30.48;37.78
9899;BME280;4988;49.238;6.698;2022-08-03T10:04:22;99087.13;;;30.41;37.03
9899;BME280;4988;49.238;6.698;2022-08-03T10:07:07;99088.59;;;30.37;37.28
9899;BME280;4988;49.238;6.698;2022-08-03T10:09:34;99084.81;;;30.38;37.61
9899;BME280;4988;49.238;6.698;2022-08-03T10:12:10;99076.56;;;30.38;37.06
9899;BME280;4988;49.238;6.698;2022-08-03T10:14:37;99082.00;;;30.31;37.13
9899;BME280;4988;49.238;6.698;2022-08-03T10:17:03;99089.53;;;30.23;37.67
9899;BME280;4988;49.238;6.698;2022-08-03T10:19:29;99084.56;;;30.33;37.36
9899;BME280;4988;49.238;6.698;2022-08-03T10:21:55;99076.84;;;30.50;36.88
9899;BME280;4988;49.238;6.698;2022-08-03T10:24:26;99080.72;;;30.56;36.66
9899;BME280;4988;49.238;6.698;2022-08-03T10:27:01;99070.91;;;30.46;36.14
9899;BME280;4988;49.238;6.698;2022-08-03T10:29:27;99074.81;;;30.59;35.53
9899;BME280;4988;49.238;6.698;2022-08-03T10:31:57;99062.16;;;30.64;35.99
9899;BME280;4988;49.238;6.698;2022-08-03T10:34:25;99062.44;;;30.76;36.17
9899;BME280;4988;49.238;6.698;2022-08-03T10:36:54;99059.94;;;30.88;35.96
9899;BME280;4988;49.238;6.698;2022-08-03T10:39:23;99058.69;;;30.91;35.89
9899;BME280;4988;49.238;6.698;2022-08-03T10:41:52;99048.53;;;30.91;35.80
9899;BME280;4988;49.238;6.698;2022-08-03T10:44:20;99044.75;;;30.92;35.11
9899;BME280;4988;49.238;6.698;2022-08-03T10:46:47;99046.66;;;30.99;35.58
9899;BME280;4988;49.238;6.698;2022-08-03T10:49:18;99044.34;;;31.02;34.66
9899;BME280;4988;49.238;6.698;2022-08-03T10:51:44;99047.34;;;31.07;34.82
9899;BME280;4988;49.238;6.698;2022-08-03T10:54:42;99044.00;;;31.19;35.59
9899;BME280;4988;49.238;6.698;2022-08-03T10:57:50;99040.38;;;31.11;35.41
9899;BME280;4988;49.238;6.698;2022-08-03T11:00:22;99045.41;;;31.01;35.42
9899;BME280;4988;49.238;6.698;2022-08-03T11:03:08;99040.59;;;31.10;35.39
9899;BME280;4988;49.238;6.698;2022-08-03T11:05:41;99042.50;;;31.16;35.19
9899;BME280;4988;49.238;6.698;2022-08-03T11:08:36;99042.94;;;31.20;34.78
9899;BME280;4988;49.238;6.698;2022-08-03T11:19:06;99023.75;;;31.60;33.96
9899;BME280;4988;49.238;6.698;2022-08-03T11:27:18;99023.56;;;31.95;33.55
9899;BME280;4988;49.238;6.698;2022-08-03T11:30:06;99020.81;;;31.95;33.50
9899;BME280;4988;49.238;6.698;2022-08-03T11:35:15;99011.50;;;31.96;33.40
9899;BME280;4988;49.238;6.698;2022-08-03T11:45:59;99013.38;;;32.16;32.15
9899;BME280;4988;49.238;6.698;2022-08-03T11:48:36;99005.75;;;32.18;33.22
9899;BME280;4988;49.238;6.698;2022-08-03T11:51:04;98999.59;;;32.29;32.12
9899;BME280;4988;49.238;6.698;2022-08-03T11:53:30;98996.19;;;32.34;32.72
9899;BME280;4988;49.238;6.698;2022-08-03T11:56:00;98998.28;;;32.45;32.20
9899;BME280;4988;49.238;6.698;2022-08-03T11:58:26;99006.50;;;32.52;32.16
9899;BME280;4988;49.238;6.698;2022-08-03T12:00:52;99001.44;;;32.49;32.30
9899;BME280;4988;49.238;6.698;2022-08-03T12:03:18;98997.19;;;32.53;31.74
9899;BME280;4988;49.238;6.698;2022-08-03T12:05:51;98988.50;;;32.56;31.73
9899;BME280;4988;49.238;6.698;2022-08-03T12:08:28;98989.91;;;32.72;31.75
9899;BME280;4988;49.238;6.698;2022-08-03T12:10:55;98987.06;;;32.92;31.09
9899;BME280;4988;49.238;6.698;2022-08-03T12:13:22;98990.19;;;33.02;31.38
9899;BME280;4988;49.238;6.698;2022-08-03T12:15:52;98987.88;;;32.99;30.98
9899;BME280;4988;49.238;6.698;2022-08-03T12:18:18;98987.25;;;32.97;31.27
9899;BME280;4988;49.238;6.698;2022-08-03T12:20:45;98985.84;;;32.88;31.08
9899;BME280;4988;49.238;6.698;2022-08-03T12:23:11;98981.19;;;32.82;31.20
9899;BME280;4988;49.238;6.698;2022-08-03T12:25:38;98980.56;;;32.80;30.93
9899;BME280;4988;49.238;6.698;2022-08-03T12:28:19;98978.16;;;32.90;31.57
9899;BME280;4988;49.238;6.698;2022-08-03T12:30:48;98982.78;;;33.03;31.20
9899;BME280;4988;49.238;6.698;2022-08-03T12:33:23;98977.69;;;33.00;30.76
9899;BME280;4988;49.238;6.698;2022-08-03T12:36:01;98973.22;;;33.06;31.06
9899;BME280;4988;49.238;6.698;2022-08-03T12:38:28;98972.75;;;33.09;30.78
9899;BME280;4988;49.238;6.698;2022-08-03T12:41:00;98971.03;;;33.14;30.72
9899;BME280;4988;49.238;6.698;2022-08-03T12:43:25;98975.88;;;33.19;31.12
9899;BME280;4988;49.238;6.698;2022-08-03T12:46:05;98970.78;;;33.23;30.97
9899;BME280;4988;49.238;6.698;2022-08-03T12:48:31;98966.72;;;33.25;30.53
9899;BME280;4988;49.238;6.698;2022-08-03T12:51:07;98969.25;;;33.27;31.01
9899;BME280;4988;49.238;6.698;2022-08-03T12:53:33;98965.22;;;33.29;30.71
9899;BME280;4988;49.238;6.698;2022-08-03T12:56:03;98966.91;;;33.30;31.30
9899;BME280;4988;49.238;6.698;2022-08-03T12:58:34;98970.06;;;33.34;30.56
9899;BME280;4988;49.238;6.698;2022-08-03T13:01:01;98962.03;;;33.32;30.48
9899;BME280;4988;49.238;6.698;2022-08-03T13:03:27;98964.56;;;33.27;31.04
9899;BME280;4988;49.238;6.698;2022-08-03T13:05:52;98971.78;;;33.28;30.96
9899;BME280;4988;49.238;6.698;2022-08-03T13:08:22;98973.25;;;33.31;30.71
9899;BME280;4988;49.238;6.698;2022-08-03T13:10:48;98963.19;;;33.43;30.51
9899;BME280;4988;49.238;6.698;2022-08-03T13:13:14;98967.94;;;33.61;30.40
9899;BME280;4988;49.238;6.698;2022-08-03T13:15:41;98971.94;;;33.65;30.63
9899;BME280;4988;49.238;6.698;2022-08-03T13:18:07;98961.59;;;33.61;30.08
9899;BME280;4988;49.238;6.698;2022-08-03T13:20:33;98961.28;;;33.69;30.40
9899;BME280;4988;49.238;6.698;2022-08-03T13:22:59;98950.63;;;33.73;30.64
9899;BME280;4988;49.238;6.698;2022-08-03T13:25:25;98952.09;;;33.75;30.49
9899;BME280;4988;49.238;6.698;2022-08-03T13:27:50;98947.03;;;33.72;30.54
9899;BME280;4988;49.238;6.698;2022-08-03T13:30:17;98948.78;;;33.66;30.65
9899;BME280;4988;49.238;6.698;2022-08-03T13:32:42;98947.94;;;33.66;30.17
9899;BME280;4988;49.238;6.698;2022-08-03T13:35:08;98936.28;;;33.64;30.62
9899;BME280;4988;49.238;6.698;2022-08-03T13:37:34;98938.63;;;33.60;30.36
9899;BME280;4988;49.238;6.698;2022-08-03T13:40:02;98935.13;;;33.72;30.81
9899;BME280;4988;49.238;6.698;2022-08-03T13:42:30;98926.56;;;33.80;30.42
9899;BME280;4988;49.238;6.698;2022-08-03T13:44:57;98929.94;;;33.82;30.57
9899;BME280;4988;49.238;6.698;2022-08-03T13:47:22;98921.00;;;33.87;30.12
9899;BME280;4988;49.238;6.698;2022-08-03T13:49:50;98922.69;;;33.88;30.02
9899;BME280;4988;49.238;6.698;2022-08-03T13:52:18;98917.63;;;33.85;29.94
9899;BME280;4988;49.238;6.698;2022-08-03T13:54:44;98913.31;;;33.89;30.31
9899;BME280;4988;49.238;6.698;2022-08-03T13:57:09;98914.78;;;33.91;30.21
9899;BME280;4988;49.238;6.698;2022-08-03T13:59:36;98905.66;;;33.91;30.06